sensor_id;sensor_type;location;lat;lon;timestamp;pressure;altitude;pressure_sealevel;temperature;humidity
27705;BME280;15109;50.992;6.918;2022-11-20T00:02:29;100647.56;;;4.90;100.00
27705;BME280;15109;50.992;6.918;2022-11-20T00:05:50;100641.59;;;4.86;100.00
27705;BME280;15109;50.992;6.918;2022-11-20T00:09:11;100644.25;;;4.96;100.00
27705;BME280;15109;50.992;6.918;2022-11-20T00:12:32;100647.97;;;4.95;100.00
27705;BME280;15109;50.992;6.918;2022-11-20T00:15:57;100640.09;;;4.92;100.00
27705;BME280;15109;50.992;6.918;2022-11-20T00:19:19;100644.84;;;4.90;100.00
27705;BME280;15109;50.992;6.918;2022-11-20T00:22:40;100646.00;;;4.87;100.00
27705;BME280;15109;50.992;6.918;2022-11-20T00:26:06;100636.00;;;4.88;100.00
27705;BME280;15109;50.992;6.918;2022-11-20T00:29:28;100641.41;;;4.88;100.00
27705;BME280;15109;50.992;6.918;2022-11-20T00:32:49;100640.28;;;4.90;100.00
27705;BME280;15109;50.992;6.918;2022-11-20T00:36:21;100644.38;;;4.94;100.00
27705;BME280;15109;50.992;6.918;2022-11-20T00:39:42;100639.44;;;4.90;100.00
27705;BME280;15109;50.992;6.918;2022-11-20T00:43:03;100629.84;;;4.95;100.00
27705;BME280;15109;50.992;6.918;2022-11-20T00:46:26;100638.97;;;4.94;100.00
27705;BME280;15109;50.992;6.918;2022-11-20T00:49:47;100635.53;;;4.92;100.00
27705;BME280;15109;50.992;6.918;2022-11-20T00:53:08;100633.16;;;4.89;100.00
27705;BME280;15109;50.992;6.918;2022-11-20T00:56:29;100631.31;;;4.90;100.00
27705;BME280;15109;50.992;6.918;2022-11-20T00:59:50;100637.88;;;4.87;100.00
27705;BME280;15109;50.992;6.918;2022-11-20T01:03:11;100644.97;;;4.88;100.00
27705;BME280;15109;50.992;6.918;2022-11-20T01:06:35;100641.13;;;4.91;100.00
27705;BME280;15109;50.992;6.918;2022-11-20T01:09:56;100643.84;;;4.91;100.00
27705;BME280;15109;50.992;6.918;2022-11-20T01:13:17;100634.00;;;4.90;100.00
27705;BME280;15109;50.992;6.918;2022-11-20T01:16:57;100635.94;;;4.97;100.00
27705;BME280;15109;50.992;6.918;2022-11-20T01:20:18;100626.88;;;4.89;100.00
27705;BME280;15109;50.992;6.918;2022-11-20T01:23:41;100625.88;;;4.90;100.00
27705;BME280;15109;50.992;6.918;2022-11-20T01:27:02;100630.13;;;4.92;100.00
27705;BME280;15109;50.992;6.918;2022-11-20T01:30:23;100622.63;;;4.86;100.00
27705;BME280;15109;50.992;6.918;2022-11-20T01:33:46;100628.91;;;4.87;100.00
27705;BME280;15109;50.992;6.918;2022-11-20T01:37:07;100635.31;;;4.86;100.00
27705;BME280;15109;50.992;6.918;2022-11-20T01:40:28;100623.31;;;4.88;100.00
27705;BME280;15109;50.992;6.918;2022-11-20T01:43:49;100627.13;;;4.95;100.00
27705;BME280;15109;50.992;6.918;2022-11-20T01:47:12;100626.56;;;4.92;100.00
27705;BME280;15109;50.992;6.918;2022-11-20T01:50:35;100621.63;;;4.87;100.00
27705;BME280;15109;50.992;6.918;2022-11-20T01:54:00;100619.00;;;4.95;100.00
27705;BME280;15109;50.992;6.918;2022-11-20T01:57:22;100613.41;;;4.97;100.00
27705;BME280;15109;50.992;6.918;2022-11-20T02:00:44;100601.59;;;4.98;100.00
27705;BME280;15109;50.992;6.918;2022-11-20T02:04:07;100589.03;;;4.97;100.00
27705;BME280;15109;50.992;6.918;2022-11-20T02:07:29;100601.03;;;4.94;100.00
27705;BME280;15109;50.992;6.918;2022-11-20T02:10:51;100603.34;;;4.89;100.00
27705;BME280;15109;50.992;6.918;2022-11-20T02:14:12;100593.91;;;4.93;100.00
27705;BME280;15109;50.992;6.918;2022-11-20T02:17:35;100588.19;;;4.96;100.00
27705;BME280;15109;50.992;6.918;2022-11-20T02:21:03;100598.25;;;4.86;100.00
27705;BME280;15109;50.992;6.918;2022-11-20T02:24:27;100592.84;;;4.86;100.00
27705;BME280;15109;50.992;6.918;2022-11-20T02:27:48;100599.38;;;4.84;100.00
27705;BME280;15109;50.992;6.918;2022-11-20T02:31:09;100593.38;;;4.90;100.00
27705;BME280;15109;50.992;6.918;2022-11-20T02:34:31;100596.94;;;4.90;100.00
27705;BME280;15109;50.992;6.918;2022-11-20T02:37:54;100593.38;;;4.90;100.00
27705;BME280;15109;50.992;6.918;2022-11-20T02:41:15;100582.53;;;4.90;100.00
27705;BME280;15109;50.992;6.918;2022-11-20T02:44:36;100584.53;;;4.88;100.00
27705;BME280;15109;50.992;6.918;2022-11-20T02:47:57;100579.13;;;4.88;100.00
27705;BME280;15109;50.992;6.918;2022-11-20T02:51:19;100581.00;;;4.87;100.00
27705;BME280;15109;50.992;6.918;2022-11-20T02:54:40;100576.19;;;4.81;100.00
27705;BME280;15109;50.992;6.918;2022-11-20T02:58:01;100568.59;;;4.85;100.00
27705;BME280;15109;50.992;6.918;2022-11-20T03:01:22;100573.16;;;4.84;100.00
27705;BME280;15109;50.992;6.918;2022-11-20T03:04:44;100574.88;;;4.85;100.00
27705;BME280;15109;50.992;6.918;2022-11-20T03:08:05;100565.88;;;4.85;100.00
27705;BME280;15109;50.992;6.918;2022-11-20T03:11:26;100570.63;;;4.83;100.00
27705;BME280;15109;50.992;6.918;2022-11-20T03:14:47;100565.03;;;4.84;100.00
27705;BME280;15109;50.992;6.918;2022-11-20T03:18:09;100572.47;;;4.82;100.00
27705;BME280;15109;50.992;6.918;2022-11-20T03:21:30;100570.44;;;4.84;100.00
27705;BME280;15109;50.992;6.918;2022-11-20T03:24:51;100561.63;;;4.82;100.00
27705;BME280;15109;50.992;6.918;2022-11-20T03:28:13;100565.56;;;4.88;100.00
27705;BME280;15109;50.992;6.918;2022-11-20T03:31:38;100563.19;;;4.85;100.00
27705;BME280;15109;50.992;6.918;2022-11-20T03:35:03;100560.63;;;4.83;100.00
27705;BME280;15109;50.992;6.918;2022-11-20T03:38:24;100559.78;;;4.83;100.00
27705;BME280;15109;50.992;6.918;2022-11-20T03:41:45;100567.34;;;4.79;100.00
27705;BME280;15109;50.992;6.918;2022-11-20T03:45:06;100559.94;;;4.81;100.00
27705;BME280;15109;50.992;6.918;2022-11-20T03:48:28;100558.06;;;4.82;100.00
27705;BME280;15109;50.992;6.918;2022-11-20T03:51:49;100562.31;;;4.84;100.00
27705;BME280;15109;50.992;6.918;2022-11-20T03:55:10;100562.19;;;4.86;100.00
27705;BME280;15109;50.992;6.918;2022-11-20T03:58:33;100560.78;;;4.82;100.00
27705;BME280;15109;50.992;6.918;2022-11-20T04:01:54;100558.63;;;4.85;100.00
27705;BME280;15109;50.992;6.918;2022-11-20T04:05:15;100561.25;;;4.77;100.00
27705;BME280;15109;50.992;6.918;2022-11-20T04:08:37;100550.63;;;4.66;100.00
27705;BME280;15109;50.992;6.918;2022-11-20T04:11:58;100547.38;;;4.63;100.00
27705;BME280;15109;50.992;6.918;2022-11-20T04:15:19;100540.63;;;4.49;100.00
27705;BME280;15109;50.992;6.918;2022-11-20T04:18:40;100542.38;;;4.40;100.00
27705;BME280;15109;50.992;6.918;2022-11-20T04:22:01;100542.59;;;4.29;100.00
27705;BME280;15109;50.992;6.918;2022-11-20T04:25:23;100529.50;;;4.25;100.00
27705;BME280;15109;50.992;6.918;2022-11-20T04:28:44;100534.69;;;4.18;100.00
27705;BME280;15109;50.992;6.918;2022-11-20T04:32:06;100542.41;;;4.13;100.00
27705;BME280;15109;50.992;6.918;2022-11-20T04:35:29;100550.00;;;4.00;100.00
27705;BME280;15109;50.992;6.918;2022-11-20T04:38:52;100544.50;;;3.92;100.00
27705;BME280;15109;50.992;6.918;2022-11-20T04:42:13;100551.91;;;4.17;100.00
27705;BME280;15109;50.992;6.918;2022-11-20T04:45:57;100551.75;;;4.19;100.00
27705;BME280;15109;50.992;6.918;2022-11-20T04:49:18;100553.63;;;4.18;100.00
27705;BME280;15109;50.992;6.918;2022-11-20T04:52:39;100557.88;;;4.21;100.00
27705;BME280;15109;50.992;6.918;2022-11-20T04:56:06;100554.69;;;4.35;100.00
27705;BME280;15109;50.992;6.918;2022-11-20T04:59:27;100562.91;;;4.43;100.00
27705;BME280;15109;50.992;6.918;2022-11-20T05:02:48;100568.81;;;4.56;100.00
27705;BME280;15109;50.992;6.918;2022-11-20T05:06:11;100565.78;;;4.59;100.00
27705;BME280;15109;50.992;6.918;2022-11-20T05:09:33;100568.88;;;4.64;100.00
27705;BME280;15109;50.992;6.918;2022-11-20T05:12:54;100567.81;;;4.57;100.00
27705;BME280;15109;50.992;6.918;2022-11-20T05:16:20;100563.06;;;4.59;100.00
27705;BME280;15109;50.992;6.918;2022-11-20T05:19:41;100557.06;;;4.65;100.00
27705;BME280;15109;50.992;6.918;2022-11-20T05:23:03;100558.91;;;4.65;100.00
27705;BME280;15109;50.992;6.918;2022-11-20T05:26:24;100554.63;;;4.62;100.00
27705;BME280;15109;50.992;6.918;2022-11-20T05:29:45;100556.03;;;4.66;100.00
27705;BME280;15109;50.992;6.918;2022-11-20T05:33:07;100559.44;;;4.68;100.00
27705;BME280;15109;50.992;6.918;2022-11-20T05:36:29;100563.09;;;4.77;100.00
27705;BME280;15109;50.992;6.918;2022-11-20T05:39:50;100552.25;;;4.77;100.00
27705;BME280;15109;50.992;6.918;2022-11-20T05:43:11;100564.56;;;4.71;100.00
27705;BME280;15109;50.992;6.918;2022-11-20T05:46:33;100564.56;;;4.71;100.00
27705;BME280;15109;50.992;6.918;2022-11-20T05:49:54;100557.81;;;4.75;100.00
27705;BME280;15109;50.992;6.918;2022-11-20T05:53:15;100558.28;;;4.71;100.00
27705;BME280;15109;50.992;6.918;2022-11-20T05:56:36;100552.31;;;4.67;100.00
27705;BME280;15109;50.992;6.918;2022-11-20T05:59:57;100548.22;;;4.63;100.00
27705;BME280;15109;50.992;6.918;2022-11-20T06:03:18;100555.81;;;4.60;100.00
27705;BME280;15109;50.992;6.918;2022-11-20T06:06:39;100550.44;;;4.50;100.00
27705;BME280;15109;50.992;6.918;2022-11-20T06:10:00;100557.03;;;4.47;100.00
27705;BME280;15109;50.992;6.918;2022-11-20T06:13:21;100547.91;;;4.48;100.00
27705;BME280;15109;50.992;6.918;2022-11-20T06:16:42;100543.91;;;4.52;100.00
27705;BME280;15109;50.992;6.918;2022-11-20T06:20:04;100549.53;;;4.59;100.00
27705;BME280;15109;50.992;6.918;2022-11-20T06:23:25;100547.34;;;4.45;100.00
27705;BME280;15109;50.992;6.918;2022-11-20T06:26:46;100539.44;;;4.34;100.00
27705;BME280;15109;50.992;6.918;2022-11-20T06:30:08;100540.19;;;4.26;100.00
27705;BME280;15109;50.992;6.918;2022-11-20T06:33:29;100542.50;;;4.21;100.00
27705;BME280;15109;50.992;6.918;2022-11-20T06:36:50;100550.34;;;4.15;100.00
27705;BME280;15109;50.992;6.918;2022-11-20T06:40:12;100553.88;;;4.25;100.00
27705;BME280;15109;50.992;6.918;2022-11-20T06:43:33;100547.59;;;4.24;100.00
27705;BME280;15109;50.992;6.918;2022-11-20T06:46:54;100559.03;;;4.18;100.00
27705;BME280;15109;50.992;6.918;2022-11-20T06:50:15;100572.13;;;4.23;100.00
27705;BME280;15109;50.992;6.918;2022-11-20T06:53:37;100559.13;;;4.26;100.00
27705;BME280;15109;50.992;6.918;2022-11-20T06:56:58;100561.53;;;4.29;100.00
27705;BME280;15109;50.992;6.918;2022-11-20T07:00:19;100569.13;;;4.26;100.00
27705;BME280;15109;50.992;6.918;2022-11-20T07:03:42;100565.69;;;4.24;100.00
27705;BME280;15109;50.992;6.918;2022-11-20T07:07:03;100563.16;;;4.22;100.00
27705;BME280;15109;50.992;6.918;2022-11-20T07:10:24;100570.41;;;4.22;100.00
27705;BME280;15109;50.992;6.918;2022-11-20T07:13:46;100578.63;;;4.30;100.00
27705;BME280;15109;50.992;6.918;2022-11-20T07:17:07;100573.66;;;4.25;100.00
27705;BME280;15109;50.992;6.918;2022-11-20T07:20:28;100580.63;;;4.28;100.00
27705;BME280;15109;50.992;6.918;2022-11-20T07:23:49;100591.41;;;4.37;100.00
27705;BME280;15109;50.992;6.918;2022-11-20T07:27:10;100588.34;;;4.50;100.00
27705;BME280;15109;50.992;6.918;2022-11-20T07:30:31;100586.81;;;4.47;100.00
27705;BME280;15109;50.992;6.918;2022-11-20T07:33:52;100586.50;;;4.50;100.00
27705;BME280;15109;50.992;6.918;2022-11-20T07:37:14;100583.09;;;4.66;100.00
27705;BME280;15109;50.992;6.918;2022-11-20T07:40:36;100589.97;;;4.70;100.00
27705;BME280;15109;50.992;6.918;2022-11-20T07:43:57;100583.06;;;4.76;100.00
27705;BME280;15109;50.992;6.918;2022-11-20T07:47:18;100583.38;;;4.73;100.00
27705;BME280;15109;50.992;6.918;2022-11-20T07:50:39;100575.00;;;4.84;100.00
27705;BME280;15109;50.992;6.918;2022-11-20T07:54:00;100578.28;;;4.87;100.00
27705;BME280;15109;50.992;6.918;2022-11-20T07:57:21;100566.97;;;4.92;100.00
27705;BME280;15109;50.992;6.918;2022-11-20T08:00:43;100574.41;;;4.90;100.00
27705;BME280;15109;50.992;6.918;2022-11-20T08:04:04;100574.63;;;4.96;100.00
27705;BME280;15109;50.992;6.918;2022-11-20T08:07:25;100577.53;;;5.13;100.00
27705;BME280;15109;50.992;6.918;2022-11-20T08:10:46;100577.06;;;5.17;100.00
27705;BME280;15109;50.992;6.918;2022-11-20T08:14:07;100562.66;;;5.17;100.00
27705;BME280;15109;50.992;6.918;2022-11-20T08:17:34;100567.06;;;5.18;100.00
27705;BME280;15109;50.992;6.918;2022-11-20T08:20:55;100562.47;;;5.18;100.00
27705;BME280;15109;50.992;6.918;2022-11-20T08:24:16;100573.69;;;5.23;100.00
27705;BME280;15109;50.992;6.918;2022-11-20T08:27:37;100575.63;;;5.31;100.00
27705;BME280;15109;50.992;6.918;2022-11-20T08:31:02;100581.97;;;5.39;100.00
27705;BME280;15109;50.992;6.918;2022-11-20T08:34:23;100584.38;;;5.42;100.00
27705;BME280;15109;50.992;6.918;2022-11-20T08:37:48;100576.50;;;5.57;100.00
27705;BME280;15109;50.992;6.918;2022-11-20T08:41:09;100579.22;;;5.57;100.00
27705;BME280;15109;50.992;6.918;2022-11-20T08:44:47;100580.78;;;5.60;100.00
27705;BME280;15109;50.992;6.918;2022-11-20T08:48:08;100588.59;;;5.63;100.00
27705;BME280;15109;50.992;6.918;2022-11-20T08:51:30;100584.56;;;5.67;100.00
27705;BME280;15109;50.992;6.918;2022-11-20T08:54:51;100571.56;;;5.78;100.00
27705;BME280;15109;50.992;6.918;2022-11-20T08:58:12;100576.53;;;5.83;100.00
27705;BME280;15109;50.992;6.918;2022-11-20T09:01:33;100578.56;;;5.81;100.00
27705;BME280;15109;50.992;6.918;2022-11-20T09:04:54;100587.38;;;5.83;100.00
27705;BME280;15109;50.992;6.918;2022-11-20T09:08:15;100590.50;;;5.88;100.00
27705;BME280;15109;50.992;6.918;2022-11-20T09:11:36;100582.59;;;5.95;100.00
27705;BME280;15109;50.992;6.918;2022-11-20T09:14:57;100578.72;;;6.05;100.00
27705;BME280;15109;50.992;6.918;2022-11-20T09:18:18;100580.81;;;6.11;100.00
27705;BME280;15109;50.992;6.918;2022-11-20T09:21:39;100579.09;;;6.10;100.00
27705;BME280;15109;50.992;6.918;2022-11-20T09:25:01;100564.19;;;6.14;100.00
27705;BME280;15109;50.992;6.918;2022-11-20T09:28:22;100559.81;;;6.21;100.00
27705;BME280;15109;50.992;6.918;2022-11-20T09:31:43;100558.69;;;6.32;100.00
27705;BME280;15109;50.992;6.918;2022-11-20T09:35:04;100551.53;;;6.31;100.00
27705;BME280;15109;50.992;6.918;2022-11-20T09:38:25;100531.56;;;6.48;100.00
27705;BME280;15109;50.992;6.918;2022-11-20T09:45:56;100545.25;;;6.72;100.00
27705;BME280;15109;50.992;6.918;2022-11-20T09:49:33;100546.97;;;6.81;100.00
27705;BME280;15109;50.992;6.918;2022-11-20T09:53:11;100560.72;;;6.80;100.00
27705;BME280;15109;50.992;6.918;2022-11-20T09:56:34;100546.63;;;6.76;100.00
27705;BME280;15109;50.992;6.918;2022-11-20T10:00:04;100540.31;;;6.76;100.00
27705;BME280;15109;50.992;6.918;2022-11-20T10:07:07;100562.94;;;6.84;100.00
27705;BME280;15109;50.992;6.918;2022-11-20T10:21:12;100540.19;;;6.94;100.00
27705;BME280;15109;50.992;6.918;2022-11-20T10:24:56;100542.53;;;6.80;100.00
27705;BME280;15109;50.992;6.918;2022-11-20T10:32:02;100529.44;;;6.68;100.00
27705;BME280;15109;50.992;6.918;2022-11-20T10:35:45;100514.50;;;6.64;100.00
27705;BME280;15109;50.992;6.918;2022-11-20T10:39:38;100505.00;;;6.84;100.00
27705;BME280;15109;50.992;6.918;2022-11-20T10:43:16;100499.94;;;6.97;100.00
27705;BME280;15109;50.992;6.918;2022-11-20T10:46:43;100491.59;;;7.15;100.00
27705;BME280;15109;50.992;6.918;2022-11-20T10:50:08;100482.25;;;7.25;100.00
27705;BME280;15109;50.992;6.918;2022-11-20T10:57:20;100470.34;;;7.35;100.00
27705;BME280;15109;50.992;6.918;2022-11-20T11:00:45;100465.41;;;7.30;100.00
27705;BME280;15109;50.992;6.918;2022-11-20T11:04:23;100470.22;;;7.12;100.00
27705;BME280;15109;50.992;6.918;2022-11-20T11:07:50;100457.63;;;7.11;100.00
27705;BME280;15109;50.992;6.918;2022-11-20T11:11:22;100459.84;;;7.07;100.00
27705;BME280;15109;50.992;6.918;2022-11-20T11:18:10;100442.31;;;7.10;100.00
27705;BME280;15109;50.992;6.918;2022-11-20T11:21:32;100444.03;;;7.03;100.00
27705;BME280;15109;50.992;6.918;2022-11-20T11:24:53;100444.56;;;6.98;100.00
27705;BME280;15109;50.992;6.918;2022-11-20T11:31:38;100439.63;;;6.86;100.00
27705;BME280;15109;50.992;6.918;2022-11-20T11:35:05;100427.06;;;6.84;100.00
27705;BME280;15109;50.992;6.918;2022-11-20T11:41:51;100407.53;;;6.89;100.00
27705;BME280;15109;50.992;6.918;2022-11-20T11:45:15;100403.25;;;6.87;100.00
27705;BME280;15109;50.992;6.918;2022-11-20T11:48:38;100406.16;;;6.93;100.00
27705;BME280;15109;50.992;6.918;2022-11-20T11:58:50;100392.91;;;6.90;100.00
27705;BME280;15109;50.992;6.918;2022-11-20T12:06:00;100377.97;;;6.94;100.00
27705;BME280;15109;50.992;6.918;2022-11-20T12:09:24;100371.69;;;6.86;100.00
27705;BME280;15109;50.992;6.918;2022-11-20T12:12:58;100361.66;;;6.94;100.00
27705;BME280;15109;50.992;6.918;2022-11-20T12:16:21;100358.59;;;6.89;100.00
27705;BME280;15109;50.992;6.918;2022-11-20T12:19:43;100358.75;;;6.96;100.00
27705;BME280;15109;50.992;6.918;2022-11-20T12:23:26;100356.75;;;6.90;100.00
27705;BME280;15109;50.992;6.918;2022-11-20T12:30:23;100356.53;;;6.91;100.00
27705;BME280;15109;50.992;6.918;2022-11-20T12:34:24;100353.69;;;6.84;100.00
27705;BME280;15109;50.992;6.918;2022-11-20T12:58:00;100313.88;;;7.16;100.00
27705;BME280;15109;50.992;6.918;2022-11-20T13:08:39;100279.22;;;7.49;100.00
27705;BME280;15109;50.992;6.918;2022-11-20T13:12:13;100277.09;;;7.67;100.00
27705;BME280;15109;50.992;6.918;2022-11-20T13:16:01;100277.75;;;7.69;100.00
27705;BME280;15109;50.992;6.918;2022-11-20T13:19:20;100267.94;;;7.60;100.00
27705;BME280;15109;50.992;6.918;2022-11-20T13:26:20;100252.28;;;7.62;100.00
27705;BME280;15109;50.992;6.918;2022-11-20T13:29:45;100253.44;;;7.67;100.00
27705;BME280;15109;50.992;6.918;2022-11-20T13:33:09;100245.31;;;7.59;100.00
27705;BME280;15109;50.992;6.918;2022-11-20T13:36:51;100247.00;;;7.60;100.00
27705;BME280;15109;50.992;6.918;2022-11-20T13:40:20;100226.31;;;7.51;100.00
27705;BME280;15109;50.992;6.918;2022-11-20T13:43:41;100224.97;;;7.47;100.00
27705;BME280;15109;50.992;6.918;2022-11-20T13:47:03;100221.13;;;7.42;100.00
27705;BME280;15109;50.992;6.918;2022-11-20T13:58:19;100209.88;;;7.45;100.00
27705;BME280;15109;50.992;6.918;2022-11-20T14:01:21;100190.91;;;7.37;100.00
27705;BME280;15109;50.992;6.918;2022-11-20T14:04:52;100195.66;;;7.35;100.00
27705;BME280;15109;50.992;6.918;2022-11-20T14:08:26;100187.69;;;7.33;100.00
27705;BME280;15109;50.992;6.918;2022-11-20T14:11:47;100184.13;;;7.33;100.00
27705;BME280;15109;50.992;6.918;2022-11-20T14:15:33;100177.34;;;7.28;100.00
27705;BME280;15109;50.992;6.918;2022-11-20T14:18:55;100168.69;;;7.25;100.00
27705;BME280;15109;50.992;6.918;2022-11-20T14:22:20;100161.09;;;7.12;100.00
27705;BME280;15109;50.992;6.918;2022-11-20T14:25:42;100157.19;;;7.15;100.00
27705;BME280;15109;50.992;6.918;2022-11-20T14:29:05;100150.06;;;7.14;100.00
27705;BME280;15109;50.992;6.918;2022-11-20T14:32:28;100141.50;;;7.25;100.00
27705;BME280;15109;50.992;6.918;2022-11-20T14:35:52;100126.69;;;7.27;100.00
27705;BME280;15109;50.992;6.918;2022-11-20T14:39:22;100134.72;;;7.21;100.00
27705;BME280;15109;50.992;6.918;2022-11-20T14:42:43;100130.44;;;7.26;100.00
27705;BME280;15109;50.992;6.918;2022-11-20T14:46:07;100130.44;;;7.26;100.00
27705;BME280;15109;50.992;6.918;2022-11-20T14:49:30;100122.44;;;7.25;100.00
27705;BME280;15109;50.992;6.918;2022-11-20T14:53:00;100103.78;;;7.22;100.00
27705;BME280;15109;50.992;6.918;2022-11-20T14:56:24;100110.25;;;7.21;100.00
27705;BME280;15109;50.992;6.918;2022-11-20T14:59:45;100101.91;;;7.22;100.00
27705;BME280;15109;50.992;6.918;2022-11-20T15:03:17;100103.31;;;7.18;100.00
27705;BME280;15109;50.992;6.918;2022-11-20T15:06:50;100098.56;;;7.12;100.00
27705;BME280;15109;50.992;6.918;2022-11-20T15:10:35;100098.78;;;7.11;100.00
27705;BME280;15109;50.992;6.918;2022-11-20T15:13:54;100092.31;;;7.12;100.00
27705;BME280;15109;50.992;6.918;2022-11-20T15:17:16;100091.63;;;7.10;100.00
27705;BME280;15109;50.992;6.918;2022-11-20T15:20:37;100088.06;;;7.09;100.00
27705;BME280;15109;50.992;6.918;2022-11-20T15:23:58;100087.41;;;7.07;100.00
27705;BME280;15109;50.992;6.918;2022-11-20T15:27:20;100094.38;;;7.10;100.00
27705;BME280;15109;50.992;6.918;2022-11-20T15:30:41;100082.63;;;7.09;100.00
27705;BME280;15109;50.992;6.918;2022-11-20T15:34:02;100071.41;;;7.12;100.00
27705;BME280;15109;50.992;6.918;2022-11-20T15:37:23;100066.00;;;7.04;100.00
27705;BME280;15109;50.992;6.918;2022-11-20T15:40:44;100068.94;;;7.03;100.00
27705;BME280;15109;50.992;6.918;2022-11-20T15:44:05;100046.34;;;7.02;100.00
27705;BME280;15109;50.992;6.918;2022-11-20T15:47:33;100045.19;;;6.97;100.00
27705;BME280;15109;50.992;6.918;2022-11-20T15:51:01;100032.56;;;7.04;100.00
27705;BME280;15109;50.992;6.918;2022-11-20T15:54:23;100031.13;;;6.93;100.00
27705;BME280;15109;50.992;6.918;2022-11-20T15:57:45;100026.59;;;6.86;100.00
27705;BME280;15109;50.992;6.918;2022-11-20T16:01:11;100025.00;;;6.91;100.00
27705;BME280;15109;50.992;6.918;2022-11-20T16:04:32;100009.00;;;6.96;100.00
27705;BME280;15109;50.992;6.918;2022-11-20T16:07:53;100010.28;;;6.86;100.00
27705;BME280;15109;50.992;6.918;2022-11-20T16:11:16;100001.06;;;6.87;100.00
27705;BME280;15109;50.992;6.918;2022-11-20T16:14:37;100005.97;;;6.91;100.00
27705;BME280;15109;50.992;6.918;2022-11-20T16:18:22;100005.31;;;6.89;100.00
27705;BME280;15109;50.992;6.918;2022-11-20T16:21:43;99995.00;;;6.84;100.00
27705;BME280;15109;50.992;6.918;2022-11-20T16:25:05;99989.19;;;6.88;100.00
27705;BME280;15109;50.992;6.918;2022-11-20T16:28:26;99980.66;;;6.91;100.00
27705;BME280;15109;50.992;6.918;2022-11-20T16:31:47;99981.72;;;6.90;100.00
27705;BME280;15109;50.992;6.918;2022-11-20T16:35:08;99983.38;;;6.91;100.00
27705;BME280;15109;50.992;6.918;2022-11-20T16:38:29;99983.69;;;6.96;100.00
27705;BME280;15109;50.992;6.918;2022-11-20T16:41:50;99985.22;;;6.98;100.00
27705;BME280;15109;50.992;6.918;2022-11-20T16:45:11;99968.72;;;7.00;100.00
27705;BME280;15109;50.992;6.918;2022-11-20T16:48:32;99959.66;;;7.07;100.00
27705;BME280;15109;50.992;6.918;2022-11-20T16:51:53;99962.09;;;7.02;100.00
27705;BME280;15109;50.992;6.918;2022-11-20T16:55:14;99944.19;;;7.08;100.00
27705;BME280;15109;50.992;6.918;2022-11-20T16:58:35;99950.84;;;7.05;100.00
27705;BME280;15109;50.992;6.918;2022-11-20T17:01:57;99937.41;;;7.04;100.00
27705;BME280;15109;50.992;6.918;2022-11-20T17:05:18;99935.19;;;7.07;100.00
27705;BME280;15109;50.992;6.918;2022-11-20T17:08:39;99928.00;;;7.14;100.00
27705;BME280;15109;50.992;6.918;2022-11-20T17:12:01;99922.84;;;7.19;100.00
27705;BME280;15109;50.992;6.918;2022-11-20T17:15:22;99908.03;;;7.22;100.00
27705;BME280;15109;50.992;6.918;2022-11-20T17:18:43;99894.06;;;7.25;100.00
27705;BME280;15109;50.992;6.918;2022-11-20T17:22:05;99884.88;;;7.26;100.00
27705;BME280;15109;50.992;6.918;2022-11-20T17:25:26;99872.59;;;7.30;100.00
27705;BME280;15109;50.992;6.918;2022-11-20T17:29:01;99865.66;;;7.27;100.00
27705;BME280;15109;50.992;6.918;2022-11-20T17:32:23;99847.47;;;7.28;100.00
27705;BME280;15109;50.992;6.918;2022-11-20T17:35:44;99848.22;;;7.22;100.00
27705;BME280;15109;50.992;6.918;2022-11-20T17:39:05;99847.19;;;7.23;100.00
27705;BME280;15109;50.992;6.918;2022-11-20T17:42:26;99841.84;;;7.29;100.00
27705;BME280;15109;50.992;6.918;2022-11-20T17:45:49;99831.53;;;7.25;100.00
27705;BME280;15109;50.992;6.918;2022-11-20T17:49:10;99836.78;;;7.26;100.00
27705;BME280;15109;50.992;6.918;2022-11-20T17:52:31;99814.41;;;7.24;100.00
27705;BME280;15109;50.992;6.918;2022-11-20T17:55:56;99809.78;;;7.25;100.00
27705;BME280;15109;50.992;6.918;2022-11-20T17:59:37;99802.47;;;7.25;100.00
27705;BME280;15109;50.992;6.918;2022-11-20T18:02:58;99803.22;;;7.34;100.00
27705;BME280;15109;50.992;6.918;2022-11-20T18:06:21;99792.25;;;7.27;100.00
27705;BME280;15109;50.992;6.918;2022-11-20T18:09:42;99791.59;;;7.25;100.00
27705;BME280;15109;50.992;6.918;2022-11-20T18:13:03;99789.72;;;7.26;100.00
27705;BME280;15109;50.992;6.918;2022-11-20T18:16:26;99787.66;;;7.28;100.00
27705;BME280;15109;50.992;6.918;2022-11-20T18:19:47;99782.78;;;7.23;100.00
27705;BME280;15109;50.992;6.918;2022-11-20T18:23:10;99778.84;;;7.26;100.00
27705;BME280;15109;50.992;6.918;2022-11-20T18:26:31;99768.34;;;7.23;100.00
27705;BME280;15109;50.992;6.918;2022-11-20T18:29:52;99763.66;;;7.32;100.00
27705;BME280;15109;50.992;6.918;2022-11-20T18:33:13;99760.38;;;7.36;100.00
27705;BME280;15109;50.992;6.918;2022-11-20T18:36:34;99761.56;;;7.34;100.00
27705;BME280;15109;50.992;6.918;2022-11-20T18:39:55;99758.84;;;7.34;100.00
27705;BME280;15109;50.992;6.918;2022-11-20T18:43:16;99777.72;;;7.35;100.00
27705;BME280;15109;50.992;6.918;2022-11-20T18:46:56;99763.16;;;7.43;100.00
27705;BME280;15109;50.992;6.918;2022-11-20T18:50:17;99764.47;;;7.47;100.00
27705;BME280;15109;50.992;6.918;2022-11-20T18:53:39;99742.72;;;7.47;100.00
27705;BME280;15109;50.992;6.918;2022-11-20T18:57:00;99750.50;;;7.50;100.00
27705;BME280;15109;50.992;6.918;2022-11-20T19:00:21;99747.41;;;7.53;100.00
27705;BME280;15109;50.992;6.918;2022-11-20T19:03:42;99729.59;;;7.50;100.00
27705;BME280;15109;50.992;6.918;2022-11-20T19:07:04;99736.78;;;7.58;100.00
27705;BME280;15109;50.992;6.918;2022-11-20T19:10:25;99725.47;;;7.54;100.00
27705;BME280;15109;50.992;6.918;2022-11-20T19:13:47;99715.22;;;7.56;100.00
27705;BME280;15109;50.992;6.918;2022-11-20T19:17:08;99712.19;;;7.66;100.00